createdAt,value
2018-06-17T00:01:21.754Z,14.73
2018-06-17T00:03:58.289Z,15.00
2018-06-17T00:06:35.396Z,13.37
2018-06-17T00:09:12.484Z,15.00
2018-06-17T00:11:49.417Z,14.50
2018-06-17T00:14:27.565Z,15.33
2018-06-17T00:17:05.060Z,13.80
2018-06-17T00:19:42.955Z,15.53
2018-06-17T00:22:21.154Z,15.47
2018-06-17T00:24:57.961Z,14.87
2018-06-17T00:27:34.851Z,14.10
2018-06-17T00:30:15.222Z,14.73
2018-06-17T00:32:52.038Z,13.30
2018-06-17T00:35:29.366Z,15.93
2018-06-17T00:38:06.342Z,15.27
2018-06-17T00:40:42.353Z,15.43
2018-06-17T00:43:18.778Z,13.83
2018-06-17T00:45:59.381Z,16.33
2018-06-17T00:48:36.487Z,14.90
2018-06-17T00:51:12.939Z,14.53
2018-06-17T00:53:49.829Z,14.63
2018-06-17T00:56:28.304Z,18.07
2018-06-17T00:59:05.005Z,14.87
2018-06-17T01:01:42.934Z,16.97
2018-06-17T01:04:19.917Z,14.67
2018-06-17T01:06:56.265Z,15.90
2018-06-17T01:09:34.385Z,16.17
2018-06-17T01:12:11.206Z,17.90
2018-06-17T01:14:48.212Z,18.30
2018-06-17T01:17:24.476Z,15.63
2018-06-17T01:20:01.104Z,17.60
2018-06-17T01:22:38.299Z,25.30
2018-06-17T01:25:15.086Z,16.87
2018-06-17T01:27:51.703Z,19.77
2018-06-17T01:30:29.647Z,14.87
2018-06-17T01:33:06.790Z,15.17
2018-06-17T01:35:44.789Z,15.73
2018-06-17T01:38:21.155Z,17.97
2018-06-17T01:40:58.502Z,18.57
2018-06-17T01:43:35.831Z,16.40
2018-06-17T01:46:12.801Z,18.70
2018-06-17T01:48:49.142Z,20.67
2018-06-17T01:51:28.964Z,20.53
2018-06-17T01:54:05.790Z,20.57
2018-06-17T01:56:43.432Z,19.37
2018-06-17T01:59:20.366Z,21.03
2018-06-17T02:01:56.847Z,22.80
2018-06-17T02:04:40.293Z,18.70
2018-06-17T02:07:22.015Z,19.63
2018-06-17T02:10:06.721Z,17.47
2018-06-17T02:12:43.009Z,16.50
2018-06-17T02:15:20.250Z,15.73
2018-06-17T02:17:59.826Z,16.43
2018-06-17T02:20:36.307Z,16.63
2018-06-17T02:23:13.110Z,15.97
2018-06-17T02:25:51.830Z,14.87
2018-06-17T02:28:28.893Z,19.27
2018-06-17T02:31:05.424Z,17.17
2018-06-17T02:33:42.557Z,18.07
2018-06-17T02:36:19.080Z,23.83
2018-06-17T02:38:55.555Z,22.57
2018-06-17T02:41:33.484Z,20.73
2018-06-17T02:44:10.344Z,19.87
2018-06-17T02:46:53.540Z,23.73
2018-06-17T02:49:35.246Z,22.70
2018-06-17T02:52:16.831Z,26.20
2018-06-17T02:54:53.172Z,22.33
2018-06-17T02:57:29.587Z,23.13
2018-06-17T03:00:08.181Z,20.83
2018-06-17T03:02:45.673Z,18.47
2018-06-17T03:05:22.111Z,20.13
2018-06-17T03:07:58.824Z,18.47
2018-06-17T03:10:36.785Z,21.90
2018-06-17T03:13:13.739Z,20.40
2018-06-17T03:15:53.656Z,19.57
2018-06-17T03:18:31.075Z,18.87
2018-06-17T03:21:07.918Z,19.83
2018-06-17T03:23:45.498Z,17.50
2018-06-17T03:26:26.859Z,16.00
2018-06-17T03:29:11.315Z,15.83
2018-06-17T03:31:53.377Z,15.90
2018-06-17T03:34:30.879Z,14.53
2018-06-17T03:37:08.469Z,14.93
2018-06-17T03:39:44.615Z,14.77
2018-06-17T03:42:21.302Z,14.50
2018-06-17T03:45:01.251Z,15.17
2018-06-17T03:47:38.841Z,18.60
2018-06-17T03:50:15.449Z,15.93
2018-06-17T03:52:55.239Z,15.73
2018-06-17T03:55:32.544Z,15.37
2018-06-17T03:58:09.062Z,16.10
2018-06-17T04:00:46.826Z,17.27
2018-06-17T04:03:24.380Z,18.60
2018-06-17T04:06:01.013Z,17.30
2018-06-17T04:08:40.863Z,17.17
2018-06-17T04:11:20.698Z,17.27
2018-06-17T04:13:58.341Z,15.83
2018-06-17T04:16:35.129Z,16.13
2018-06-17T04:19:11.745Z,17.67
2018-06-17T04:21:48.093Z,15.80
2018-06-17T04:24:25.095Z,16.40
2018-06-17T04:27:04.619Z,15.13
2018-06-17T04:29:40.863Z,15.90
2018-06-17T04:32:18.130Z,18.10
2018-06-17T04:34:55.986Z,16.07
2018-06-17T04:37:32.540Z,16.30
2018-06-17T04:40:09.971Z,16.90
2018-06-17T04:42:47.799Z,15.20
2018-06-17T04:45:24.205Z,17.57
2018-06-17T04:48:01.079Z,15.83
2018-06-17T04:50:38.548Z,16.43
2018-06-17T04:53:14.866Z,16.60
2018-06-17T04:55:51.120Z,14.90
2018-06-17T04:58:29.172Z,16.00
2018-06-17T05:01:10.075Z,14.87
2018-06-17T05:03:46.550Z,15.10
2018-06-17T05:06:23.529Z,14.90
2018-06-17T05:09:00.954Z,17.10
2018-06-17T05:11:39.450Z,15.37
2018-06-17T05:14:16.180Z,15.27
2018-06-17T05:16:52.507Z,15.17
2018-06-17T05:19:28.900Z,16.67
2018-06-17T05:22:09.940Z,16.57
2018-06-17T05:24:46.623Z,14.57
2018-06-17T05:27:24.138Z,15.27
2018-06-17T05:30:01.106Z,14.40
2018-06-17T05:32:37.525Z,14.57
2018-06-17T05:35:14.231Z,17.07
2018-06-17T05:37:50.856Z,17.20
2018-06-17T05:40:29.410Z,14.57
2018-06-17T05:43:06.607Z,17.53
2018-06-17T05:45:43.565Z,12.97
2018-06-17T05:48:20.329Z,12.57
2018-06-17T05:50:57.499Z,16.27
2018-06-17T05:53:36.419Z,13.23
2018-06-17T05:56:13.142Z,13.23
2018-06-17T05:58:49.751Z,12.50
2018-06-17T06:01:27.055Z,13.77
2018-06-17T06:04:04.202Z,12.97
2018-06-17T06:06:40.701Z,12.97
2018-06-17T06:09:19.043Z,12.77
2018-06-17T06:11:55.799Z,13.20
2018-06-17T06:14:32.751Z,12.10
2018-06-17T06:17:11.208Z,13.93
2018-06-17T06:19:48.498Z,13.33
2018-06-17T06:22:26.249Z,12.13
2018-06-17T06:25:02.478Z,12.73
2018-06-17T06:27:39.469Z,12.07
2018-06-17T06:30:16.302Z,12.90
2018-06-17T06:32:55.353Z,12.60
2018-06-17T06:35:33.320Z,13.20
2018-06-17T06:38:10.038Z,12.30
2018-06-17T06:40:47.727Z,11.87
2018-06-17T06:43:24.126Z,12.37
2018-06-17T06:46:00.839Z,11.73
2018-06-17T06:48:37.430Z,12.00
2018-06-17T06:51:14.841Z,11.67
2018-06-17T06:53:52.356Z,12.70
2018-06-17T06:56:30.090Z,10.60
2018-06-17T06:59:06.736Z,10.53
2018-06-17T07:02:58.825Z,12.77
2018-06-17T07:05:46.321Z,9.93
2018-06-17T07:08:34.433Z,12.10
2018-06-17T07:11:11.015Z,9.03
2018-06-17T07:13:51.611Z,9.87
2018-06-17T07:16:38.996Z,9.70
2018-06-17T07:19:16.787Z,9.63
2018-06-17T07:21:54.338Z,8.90
2018-06-17T07:24:30.554Z,9.50
2018-06-17T07:27:20.752Z,9.67
2018-06-17T07:30:03.058Z,9.53
2018-06-17T07:32:39.869Z,9.63
2018-06-17T07:35:16.663Z,9.17
2018-06-17T07:37:52.900Z,8.77
2018-06-17T07:40:52.581Z,8.67
2018-06-17T07:43:29.450Z,8.90
2018-06-17T07:46:05.701Z,9.70
2018-06-17T07:49:51.529Z,8.77
2018-06-17T07:52:39.844Z,9.07
2018-06-17T07:55:16.503Z,9.53
2018-06-17T07:57:53.610Z,15.67
2018-06-17T08:00:30.163Z,8.97
2018-06-17T08:03:10.009Z,8.60
2018-06-17T08:05:48.659Z,10.97
2018-06-17T08:08:27.753Z,7.23
2018-06-17T08:11:09.536Z,8.33
2018-06-17T08:13:46.870Z,8.50
2018-06-17T08:16:23.999Z,7.73
2018-06-17T08:19:02.527Z,8.77
2018-06-17T08:21:38.960Z,9.50
2018-06-17T08:24:15.554Z,11.43
2018-06-17T08:26:52.577Z,9.97
2018-06-17T08:29:32.447Z,9.03
2018-06-17T08:32:08.206Z,8.30
2018-06-17T08:34:44.473Z,8.30
2018-06-17T08:37:20.900Z,7.63
2018-06-17T08:39:57.393Z,7.40
2018-06-17T08:42:33.772Z,8.67
2018-06-17T08:45:14.492Z,7.40
2018-06-17T08:47:51.034Z,8.30
2018-06-17T08:53:13.021Z,7.10
2018-06-17T08:55:52.446Z,8.93
2018-06-17T08:58:32.006Z,7.10
2018-06-17T09:03:50.662Z,7.40
2018-06-17T09:06:27.735Z,6.90
2018-06-17T09:09:06.069Z,5.90
2018-06-17T09:11:43.071Z,6.20
2018-06-17T09:14:22.570Z,6.17
2018-06-17T09:16:59.385Z,7.03
2018-06-17T09:19:38.887Z,6.87
2018-06-17T09:22:19.760Z,7.03
2018-06-17T09:24:58.199Z,9.30
2018-06-17T09:27:37.674Z,7.90
2018-06-17T09:30:19.227Z,7.77
2018-06-17T09:32:55.867Z,7.50
2018-06-17T09:35:32.908Z,9.83
2018-06-17T09:38:18.201Z,8.50
2018-06-17T09:41:02.891Z,7.40
2018-06-17T09:43:41.392Z,8.43
2018-06-17T09:46:18.401Z,7.00
2018-06-17T09:48:58.990Z,7.83
2018-06-17T09:51:35.971Z,7.23
2018-06-17T09:54:19.667Z,7.70
2018-06-17T09:57:02.077Z,7.20
2018-06-17T09:59:41.022Z,7.40
2018-06-17T10:02:22.874Z,7.80
2018-06-17T10:05:03.598Z,7.63
2018-06-17T10:07:43.996Z,9.13
2018-06-17T10:10:53.483Z,10.10
2018-06-17T10:13:34.702Z,7.93
2018-06-17T10:16:11.617Z,7.37
2018-06-17T10:18:48.832Z,9.80
2018-06-17T10:21:28.396Z,10.13
2018-06-17T10:24:05.893Z,8.73
2018-06-17T10:26:46.283Z,10.37
2018-06-17T10:29:25.670Z,7.60
2018-06-17T10:32:05.493Z,8.00
2018-06-17T10:34:47.273Z,8.83
2018-06-17T10:37:30.312Z,9.63
2018-06-17T10:40:08.290Z,10.20
2018-06-17T10:45:32.995Z,7.23
2018-06-17T10:48:09.213Z,9.77
2018-06-17T10:50:49.803Z,8.57
2018-06-17T10:53:30.658Z,8.87
2018-06-17T10:56:09.250Z,6.63
2018-06-17T10:58:52.949Z,8.13
2018-06-17T11:01:29.899Z,9.17
2018-06-17T11:04:09.674Z,7.53
2018-06-17T11:06:49.061Z,9.17
2018-06-17T11:09:31.618Z,10.00
2018-06-17T11:12:12.342Z,8.07
2018-06-17T11:14:51.356Z,10.07
2018-06-17T11:17:34.142Z,10.67
2018-06-17T11:20:12.686Z,8.33
2018-06-17T11:22:53.183Z,11.27
2018-06-17T11:25:33.544Z,10.43
2018-06-17T11:28:10.143Z,9.03
2018-06-17T11:30:48.944Z,9.90
2018-06-17T11:33:26.469Z,8.37
2018-06-17T11:36:06.722Z,8.07
2018-06-17T11:38:44.097Z,9.43
2018-06-17T11:41:20.964Z,9.00
2018-06-17T11:44:03.081Z,7.97
2018-06-17T11:46:40.004Z,8.20
2018-06-17T11:49:16.509Z,10.73
2018-06-17T11:51:58.207Z,7.50
2018-06-17T11:54:37.965Z,8.33
2018-06-17T11:57:17.323Z,7.77
2018-06-17T11:59:57.502Z,7.20
2018-06-17T12:02:37.126Z,7.67
2018-06-17T12:05:21.626Z,9.30
2018-06-17T12:07:59.950Z,8.07
2018-06-17T12:10:38.548Z,7.53
2018-06-17T12:13:20.685Z,8.50
2018-06-17T12:15:58.211Z,7.43
2018-06-17T12:44:50.339Z,6.87
2018-06-17T12:47:27.799Z,6.20
2018-06-17T12:50:04.154Z,7.70
2018-06-17T12:52:44.016Z,7.20
2018-06-17T12:55:22.779Z,6.40
2018-06-17T12:58:02.802Z,7.17
2018-06-17T13:00:45.070Z,6.20
2018-06-17T13:03:22.167Z,6.93
2018-06-17T13:06:02.309Z,6.63
2018-06-17T13:08:43.101Z,8.17
2018-06-17T13:11:23.148Z,6.63
2018-06-17T13:14:03.123Z,6.63
2018-06-17T13:16:46.629Z,7.13
2018-06-17T13:19:24.154Z,8.10
2018-06-17T13:22:07.452Z,7.50
2018-06-17T13:24:52.963Z,9.57
2018-06-17T13:27:29.577Z,7.87
2018-06-17T13:30:14.418Z,9.10
2018-06-17T13:32:51.488Z,11.57
2018-06-17T13:35:29.093Z,10.00
2018-06-17T13:38:06.991Z,19.90
2018-06-17T13:40:44.644Z,10.43
2018-06-17T14:25:39.486Z,9.47
2018-06-17T14:28:16.022Z,9.77
2018-06-17T14:30:54.172Z,9.53
2018-06-17T14:33:40.477Z,7.80
2018-06-17T14:36:20.080Z,8.17
2018-06-17T14:38:57.117Z,9.73
2018-06-17T14:41:37.649Z,8.10
2018-06-17T14:44:24.708Z,7.80
2018-06-17T14:47:23.715Z,11.37
2018-06-17T14:50:15.762Z,10.57
2018-06-17T14:53:05.555Z,7.90
2018-06-17T14:55:42.361Z,8.57
2018-06-17T14:58:19.050Z,8.93
2018-06-17T15:01:01.705Z,8.03
2018-06-17T15:03:43.717Z,8.57
2018-06-17T15:06:20.184Z,8.73
2018-06-17T15:09:02.906Z,8.43
2018-06-17T15:11:47.081Z,6.30
2018-06-17T15:14:54.856Z,7.07
2018-06-17T15:17:39.625Z,5.30
2018-06-17T15:20:36.652Z,5.80
2018-06-17T15:23:17.368Z,3.90
2018-06-17T15:26:03.937Z,5.10
2018-06-17T15:28:46.541Z,5.87
2018-06-17T15:31:37.058Z,3.63
2018-06-17T15:34:25.177Z,4.87
2018-06-17T15:37:06.757Z,3.37
2018-06-17T15:40:08.314Z,4.13
2018-06-17T15:42:45.232Z,3.93
2018-06-17T15:45:23.551Z,3.60
2018-06-17T15:48:08.105Z,3.07
2018-06-17T15:50:53.820Z,5.47
2018-06-17T15:53:44.337Z,3.70
2018-06-17T15:56:28.181Z,6.20
2018-06-17T16:01:54.646Z,4.10
2018-06-17T16:39:54.652Z,4.10
2018-06-17T16:42:31.633Z,4.77
2018-06-17T16:45:11.609Z,3.27
2018-06-17T16:47:52.900Z,4.23
2018-06-17T16:50:31.169Z,3.13
2018-06-17T16:53:20.214Z,3.87
2018-06-17T16:56:01.597Z,4.90
2018-06-17T16:58:52.072Z,3.73
2018-06-17T17:01:33.656Z,4.83
2018-06-17T17:04:12.620Z,5.00
2018-06-17T17:07:02.651Z,4.30
2018-06-17T17:09:39.226Z,3.20
2018-06-17T17:12:15.681Z,4.17
2018-06-17T17:14:57.819Z,3.63
2018-06-17T17:17:33.730Z,3.20
2018-06-17T17:20:13.487Z,3.80
2018-06-17T17:22:56.285Z,2.70
2018-06-17T17:25:37.108Z,5.03
2018-06-17T17:28:15.193Z,3.20
2018-06-17T17:30:57.201Z,3.20
2018-06-17T17:33:43.468Z,3.60
2018-06-17T17:36:25.397Z,3.70
2018-06-17T17:39:06.973Z,3.57
2018-06-17T17:41:44.378Z,2.93
2018-06-17T17:44:23.448Z,3.27
2018-06-17T17:47:05.128Z,3.70
2018-06-17T17:49:41.671Z,2.73
2018-06-17T17:52:22.683Z,4.57
2018-06-17T17:54:59.399Z,3.90
2018-06-17T17:57:39.374Z,3.63
2018-06-17T18:00:19.372Z,2.43
2018-06-17T18:05:42.181Z,3.00
2018-06-17T18:08:21.454Z,3.50
2018-06-17T18:11:02.756Z,3.17
2018-06-17T18:13:42.857Z,2.97
2018-06-17T18:16:23.392Z,4.00
2018-06-17T18:19:03.050Z,2.93
2018-06-17T18:21:42.406Z,2.90
2018-06-17T18:24:23.951Z,4.27
2018-06-17T18:27:10.360Z,3.80
2018-06-17T18:29:52.471Z,3.90
2018-06-17T18:32:34.214Z,4.50
2018-06-17T18:38:06.018Z,4.70
2018-06-17T18:40:46.664Z,2.83
2018-06-17T18:43:25.876Z,3.60
2018-06-17T18:46:04.809Z,4.00
2018-06-17T18:48:44.595Z,3.90
2018-06-17T18:51:24.148Z,2.50
2018-06-17T18:54:03.806Z,4.10
2018-06-17T18:56:47.479Z,3.40
2018-06-17T18:59:26.889Z,3.07
2018-06-17T19:02:07.328Z,2.70
2018-06-17T19:04:48.559Z,5.03
2018-06-17T19:07:28.304Z,2.43
2018-06-17T19:10:14.098Z,3.33
2018-06-17T19:12:56.076Z,2.67
2018-06-17T19:16:42.460Z,2.80
2018-06-17T19:19:23.413Z,2.73
2018-06-17T19:22:02.260Z,2.43
2018-06-17T19:24:42.363Z,2.77
2018-06-17T19:27:20.366Z,2.50
2018-06-17T19:29:59.529Z,2.40
2018-06-17T19:32:36.438Z,3.40
2018-06-17T19:35:13.002Z,2.80
2018-06-17T19:37:52.021Z,3.10
2018-06-17T19:40:33.992Z,3.03
2018-06-17T19:43:14.530Z,4.23
2018-06-17T19:45:53.002Z,3.23
2018-06-17T19:48:32.904Z,3.00
2018-06-17T19:51:19.185Z,3.00
2018-06-17T19:54:01.020Z,2.73
2018-06-17T19:56:44.283Z,3.97
2018-06-17T19:59:32.209Z,2.57
2018-06-17T20:02:12.661Z,2.80
2018-06-17T20:04:53.077Z,4.00
2018-06-17T20:07:37.044Z,3.40
2018-06-17T20:10:15.469Z,3.97
2018-06-17T20:12:55.918Z,5.20
2018-06-17T20:15:38.716Z,4.27
2018-06-17T20:18:15.583Z,3.97
2018-06-17T20:20:56.420Z,3.10
2018-06-17T20:23:36.045Z,3.37
2018-06-17T20:26:15.140Z,2.93
2018-06-17T20:28:53.448Z,3.50
2018-06-17T20:31:30.773Z,5.00
2018-06-17T20:34:16.166Z,3.00
2018-06-17T20:37:02.155Z,4.23
2018-06-17T20:39:43.685Z,6.03
2018-06-17T20:42:27.473Z,3.60
2018-06-17T20:45:04.425Z,4.10
2018-06-17T20:47:47.706Z,4.13
2018-06-17T20:50:23.476Z,3.73
2018-06-17T20:52:59.923Z,3.00
2018-06-17T20:55:37.327Z,3.20
2018-06-17T20:58:14.957Z,3.50
2018-06-17T21:00:51.890Z,2.97
2018-06-17T21:03:28.523Z,2.90
2018-06-17T21:06:05.199Z,3.27
2018-06-17T21:08:42.651Z,5.20
2018-06-17T21:11:23.350Z,7.17
2018-06-17T21:14:02.465Z,3.90
2018-06-17T21:16:41.767Z,4.83
2018-06-17T21:19:25.783Z,3.37
2018-06-17T21:22:09.318Z,6.53
2018-06-17T21:24:51.203Z,3.20
2018-06-17T21:27:33.819Z,4.93
2018-06-17T21:30:11.501Z,3.53
2018-06-17T21:32:49.018Z,3.20
2018-06-17T21:35:30.113Z,3.40
2018-06-17T21:38:07.366Z,3.33
2018-06-17T21:40:47.335Z,3.97
2018-06-17T21:43:25.412Z,4.07
2018-06-17T21:46:03.054Z,4.60
2018-06-17T21:48:39.820Z,4.33
2018-06-17T21:51:16.740Z,4.00
2018-06-17T21:53:53.385Z,3.60
2018-06-17T21:56:30.171Z,3.73
2018-06-17T21:59:06.679Z,4.17
2018-06-17T22:01:43.675Z,3.47
2018-06-17T22:04:25.408Z,5.70
2018-06-17T22:07:02.021Z,9.17
2018-06-17T22:09:44.735Z,5.47
2018-06-17T22:12:26.795Z,3.67
2018-06-17T22:15:10.402Z,3.50
2018-06-17T22:17:52.977Z,4.70
2018-06-17T22:20:29.673Z,4.53
2018-06-17T22:23:07.064Z,5.10
2018-06-17T22:25:43.943Z,4.90
2018-06-17T22:28:19.616Z,4.23
2018-06-17T22:30:56.357Z,3.90
2018-06-17T22:33:33.206Z,4.10
2018-06-17T22:36:10.712Z,5.63
2018-06-17T22:38:49.373Z,3.57
2018-06-17T22:41:26.335Z,4.30
2018-06-17T22:44:03.499Z,4.57
2018-06-17T22:46:40.672Z,4.10
2018-06-17T22:49:17.449Z,5.90
2018-06-17T22:51:53.876Z,4.43
2018-06-17T22:54:41.971Z,4.80
2018-06-17T22:57:23.391Z,4.40
2018-06-17T23:00:06.029Z,4.50
2018-06-17T23:02:47.336Z,4.87
2018-06-17T23:05:29.452Z,7.33
2018-06-17T23:08:14.960Z,3.40
2018-06-17T23:10:52.169Z,4.47
2018-06-17T23:13:28.085Z,6.83
2018-06-17T23:16:05.463Z,3.23
2018-06-17T23:18:42.379Z,3.77
2018-06-17T23:21:19.595Z,3.43
2018-06-17T23:23:55.937Z,5.37
2018-06-17T23:26:33.142Z,5.00
2018-06-17T23:29:09.948Z,5.37
2018-06-17T23:31:46.712Z,4.87
2018-06-17T23:34:24.601Z,3.33
2018-06-17T23:37:01.265Z,4.33
2018-06-17T23:39:40.630Z,4.13
2018-06-17T23:42:17.569Z,5.47
2018-06-17T23:44:54.404Z,3.83
2018-06-17T23:47:39.298Z,4.43
2018-06-17T23:50:20.956Z,4.53
2018-06-17T23:53:03.732Z,3.70
2018-06-17T23:55:45.987Z,4.93
2018-06-17T23:58:22.729Z,5.23
